createdAt,value
2018-03-22T00:01:08.084Z,5.06
2018-03-22T00:03:34.048Z,4.93
2018-03-22T00:05:59.989Z,4.98
2018-03-22T00:08:25.949Z,5.02
2018-03-22T00:10:51.906Z,5.00
2018-03-22T00:13:17.864Z,4.97
2018-03-22T00:15:43.801Z,4.97
2018-03-22T00:18:09.759Z,4.97
2018-03-22T00:20:35.727Z,5.05
2018-03-22T00:23:01.694Z,4.97
2018-03-22T00:25:27.646Z,4.82
2018-03-22T00:27:53.599Z,4.90
2018-03-22T00:30:19.571Z,4.89
2018-03-22T00:32:45.514Z,4.94
2018-03-22T00:35:11.478Z,4.93
2018-03-22T00:37:37.434Z,4.96
2018-03-22T00:40:03.409Z,4.73
2018-03-22T00:42:29.361Z,4.92
2018-03-22T00:44:55.328Z,4.57
2018-03-22T00:47:21.266Z,4.47
2018-03-22T00:49:47.228Z,4.57
2018-03-22T00:52:13.195Z,4.51
2018-03-22T00:54:39.148Z,4.54
2018-03-22T00:57:05.134Z,4.46
2018-03-22T00:59:31.087Z,4.42
2018-03-22T01:01:57.048Z,4.31
2018-03-22T01:04:23.030Z,4.38
2018-03-22T01:06:48.982Z,4.56
2018-03-22T01:09:14.952Z,4.46
2018-03-22T01:11:40.892Z,4.47
2018-03-22T01:14:06.846Z,4.51
2018-03-22T01:16:32.810Z,4.50
2018-03-22T01:18:58.775Z,4.46
2018-03-22T01:21:24.740Z,4.67
2018-03-22T01:23:50.693Z,4.64
2018-03-22T01:26:16.760Z,4.64
2018-03-22T01:28:42.693Z,4.78
2018-03-22T01:31:08.633Z,5.02
2018-03-22T01:33:34.607Z,5.30
2018-03-22T01:36:00.557Z,5.14
2018-03-22T01:38:26.520Z,4.88
2018-03-22T01:40:52.462Z,4.99
2018-03-22T01:43:18.416Z,4.59
2018-03-22T01:45:44.353Z,4.83
2018-03-22T01:48:10.313Z,4.91
2018-03-22T01:50:36.275Z,5.02
2018-03-22T01:53:02.251Z,5.03
2018-03-22T01:55:28.197Z,4.90
2018-03-22T01:57:54.152Z,4.90
2018-03-22T02:00:20.106Z,4.99
2018-03-22T02:02:46.069Z,5.10
2018-03-22T02:05:12.005Z,4.91
2018-03-22T02:07:37.945Z,4.99
2018-03-22T02:10:03.919Z,4.98
2018-03-22T02:12:29.824Z,5.09
2018-03-22T02:14:55.765Z,5.17
2018-03-22T02:17:21.697Z,5.15
2018-03-22T02:19:47.696Z,5.26
2018-03-22T02:22:13.660Z,5.27
2018-03-22T02:24:39.606Z,5.23
2018-03-22T02:27:05.564Z,5.41
2018-03-22T02:29:31.498Z,5.41
2018-03-22T02:31:57.450Z,5.32
2018-03-22T02:34:23.427Z,5.30
2018-03-22T02:36:49.383Z,5.31
2018-03-22T02:39:15.337Z,5.32
2018-03-22T02:41:41.282Z,5.32
2018-03-22T02:44:07.242Z,5.31
2018-03-22T02:46:33.201Z,5.31
2018-03-22T02:48:59.142Z,5.22
2018-03-22T02:51:25.093Z,5.24
2018-03-22T02:53:51.053Z,5.33
2018-03-22T02:56:16.993Z,5.31
2018-03-22T02:58:42.934Z,5.40
2018-03-22T03:01:08.877Z,5.41
2018-03-22T03:03:34.823Z,5.26
2018-03-22T03:06:00.765Z,5.31
2018-03-22T03:08:26.716Z,5.47
2018-03-22T03:10:52.637Z,5.31
2018-03-22T03:13:18.591Z,5.60
2018-03-22T03:15:44.553Z,5.44
2018-03-22T03:18:10.504Z,5.48
2018-03-22T03:20:36.433Z,5.70
2018-03-22T03:23:02.388Z,5.65
2018-03-22T03:25:28.429Z,5.40
2018-03-22T03:27:54.359Z,5.67
2018-03-22T03:30:20.319Z,5.66
2018-03-22T03:32:46.301Z,5.39
2018-03-22T03:35:12.244Z,5.37
2018-03-22T03:37:38.180Z,5.50
2018-03-22T03:40:04.149Z,5.51
2018-03-22T03:42:30.102Z,5.56
2018-03-22T03:44:56.062Z,5.42
2018-03-22T03:47:22.005Z,5.46
2018-03-22T03:49:47.946Z,5.59
2018-03-22T03:52:13.896Z,5.33
2018-03-22T03:54:39.858Z,5.32
2018-03-22T03:57:05.817Z,5.59
2018-03-22T03:59:31.752Z,5.47
2018-03-22T04:01:57.728Z,5.47
2018-03-22T04:04:23.658Z,5.60
2018-03-22T04:06:49.599Z,5.59
2018-03-22T04:09:15.541Z,5.50
2018-03-22T04:11:41.509Z,5.54
2018-03-22T04:14:07.466Z,5.47
2018-03-22T04:16:33.425Z,5.38
2018-03-22T04:18:59.382Z,5.56
2018-03-22T04:21:25.349Z,5.43
2018-03-22T04:23:51.308Z,5.54
2018-03-22T04:26:17.264Z,5.61
2018-03-22T04:28:43.230Z,5.56
2018-03-22T04:31:09.186Z,5.55
2018-03-22T04:33:35.114Z,5.43
2018-03-22T04:36:01.070Z,5.62
2018-03-22T04:38:27.099Z,5.67
2018-03-22T04:40:53.060Z,5.47
2018-03-22T04:43:19.018Z,5.48
2018-03-22T04:45:45.065Z,5.48
2018-03-22T04:48:11.010Z,5.71
2018-03-22T04:50:36.960Z,5.71
2018-03-22T04:53:02.898Z,5.66
2018-03-22T04:55:28.838Z,5.60
2018-03-22T04:57:54.806Z,5.56
2018-03-22T05:00:20.758Z,5.52
2018-03-22T05:02:46.704Z,5.67
2018-03-22T05:05:12.650Z,5.66
2018-03-22T05:07:38.618Z,5.53
2018-03-22T05:10:04.572Z,5.59
2018-03-22T05:12:30.541Z,5.58
2018-03-22T05:14:56.494Z,5.42
2018-03-22T05:17:22.448Z,5.59
2018-03-22T05:19:48.389Z,5.45
2018-03-22T05:22:14.345Z,5.62
2018-03-22T05:24:40.296Z,5.46
2018-03-22T05:27:06.238Z,5.47
2018-03-22T05:29:32.188Z,5.45
2018-03-22T05:31:58.120Z,5.64
2018-03-22T05:34:24.068Z,5.61
2018-03-22T05:36:50.001Z,5.99
2018-03-22T05:39:15.930Z,5.72
2018-03-22T05:41:41.860Z,5.83
2018-03-22T05:44:07.817Z,5.85
2018-03-22T05:46:33.807Z,5.63
2018-03-22T05:48:59.752Z,5.89
2018-03-22T05:51:25.731Z,5.81
2018-03-22T05:53:51.684Z,5.76
2018-03-22T05:56:17.623Z,5.81
2018-03-22T05:58:43.552Z,5.79
2018-03-22T06:01:09.530Z,5.99
2018-03-22T06:03:36.487Z,5.96
2018-03-22T06:06:02.436Z,5.94
2018-03-22T06:08:28.390Z,5.96
2018-03-22T06:10:54.327Z,5.97
2018-03-22T06:13:20.276Z,5.98
2018-03-22T06:15:46.215Z,6.01
2018-03-22T06:18:12.170Z,6.07
2018-03-22T06:20:39.198Z,6.09
2018-03-22T06:23:05.182Z,5.99
2018-03-22T06:25:31.136Z,6.02
2018-03-22T06:27:57.089Z,6.14
2018-03-22T06:30:23.103Z,6.27
2018-03-22T06:32:49.214Z,6.26
2018-03-22T06:35:15.207Z,6.29
2018-03-22T06:37:42.194Z,6.28
2018-03-22T06:40:08.183Z,6.37
2018-03-22T06:42:34.161Z,6.38
2018-03-22T06:45:00.125Z,6.50
2018-03-22T06:47:26.092Z,6.46
2018-03-22T06:49:52.043Z,6.96
2018-03-22T06:52:17.986Z,7.13
2018-03-22T06:54:43.929Z,7.31
2018-03-22T06:57:09.851Z,7.06
2018-03-22T06:59:35.796Z,7.01
2018-03-22T07:02:01.767Z,6.96
2018-03-22T07:04:27.744Z,7.05
2018-03-22T07:06:53.729Z,6.96
2018-03-22T07:09:19.623Z,7.26
2018-03-22T07:11:45.563Z,7.39
2018-03-22T07:14:11.532Z,7.30
2018-03-22T07:16:37.467Z,7.26
2018-03-22T07:19:03.403Z,7.58
2018-03-22T07:21:29.349Z,7.36
2018-03-22T07:23:55.299Z,7.29
2018-03-22T07:26:21.243Z,7.37
2018-03-22T07:28:47.171Z,7.41
2018-03-22T07:31:13.143Z,7.44
2018-03-22T07:33:39.072Z,7.31
2018-03-22T07:36:05.013Z,7.43
2018-03-22T07:38:30.963Z,7.52
2018-03-22T07:40:56.943Z,7.66
2018-03-22T07:43:22.877Z,7.94
2018-03-22T07:45:48.825Z,7.91
2018-03-22T07:48:14.759Z,7.91
2018-03-22T07:50:40.714Z,7.89
2018-03-22T07:53:06.661Z,8.02
2018-03-22T07:55:32.657Z,8.15
2018-03-22T07:57:58.611Z,8.20
2018-03-22T08:00:24.575Z,8.12
2018-03-22T08:02:50.531Z,8.20
2018-03-22T08:05:16.486Z,8.04
2018-03-22T08:07:42.416Z,8.10
2018-03-22T08:10:08.381Z,7.83
2018-03-22T08:12:34.343Z,7.67
2018-03-22T08:15:00.464Z,7.81
2018-03-22T08:17:26.405Z,8.10
2018-03-22T08:19:52.355Z,7.76
2018-03-22T08:22:18.317Z,7.40
2018-03-22T08:24:44.282Z,7.52
2018-03-22T08:27:10.233Z,7.46
2018-03-22T08:29:36.184Z,7.34
2018-03-22T08:32:02.126Z,7.26
2018-03-22T08:34:28.077Z,7.22
2018-03-22T08:36:54.047Z,7.17
2018-03-22T08:39:19.978Z,7.16
2018-03-22T08:41:45.938Z,6.86
2018-03-22T08:44:11.878Z,6.76
2018-03-22T08:46:37.831Z,6.70
2018-03-22T08:49:03.778Z,6.85
2018-03-22T08:51:29.730Z,6.90
2018-03-22T08:53:55.682Z,7.16
2018-03-22T08:56:21.632Z,7.12
2018-03-22T08:58:47.582Z,7.21
2018-03-22T09:01:13.541Z,7.16
2018-03-22T09:03:39.498Z,7.16
2018-03-22T09:06:05.446Z,7.17
2018-03-22T09:08:31.381Z,7.23
2018-03-22T09:10:57.330Z,7.25
2018-03-22T09:13:23.270Z,7.49
2018-03-22T09:15:49.214Z,7.47
2018-03-22T09:18:15.165Z,7.60
2018-03-22T09:20:41.101Z,7.51
2018-03-22T09:23:07.040Z,7.71
2018-03-22T09:25:33.008Z,7.81
2018-03-22T09:27:58.969Z,7.58
2018-03-22T09:30:24.925Z,7.55
2018-03-22T09:32:50.883Z,7.91
2018-03-22T09:35:16.835Z,7.84
2018-03-22T09:37:42.766Z,7.94
2018-03-22T09:40:08.726Z,7.86
2018-03-22T09:42:34.682Z,7.92
2018-03-22T09:45:00.628Z,8.02
2018-03-22T09:47:26.556Z,7.98
2018-03-22T09:49:52.502Z,7.88
2018-03-22T09:52:18.438Z,7.94
2018-03-22T09:54:44.374Z,7.88
2018-03-22T09:57:10.328Z,7.89
2018-03-22T09:59:36.306Z,7.83
2018-03-22T10:02:02.268Z,7.94
2018-03-22T10:04:28.209Z,8.09
2018-03-22T10:06:54.146Z,8.02
2018-03-22T10:09:20.103Z,7.66
2018-03-22T10:11:46.078Z,7.95
2018-03-22T10:14:12.023Z,7.97
2018-03-22T10:16:37.963Z,7.95
2018-03-22T10:19:03.907Z,7.74
2018-03-22T10:21:29.858Z,7.88
2018-03-22T10:23:55.788Z,7.93
2018-03-22T10:26:21.757Z,8.09
2018-03-22T10:28:47.706Z,7.97
2018-03-22T10:31:13.715Z,7.92
2018-03-22T10:33:39.691Z,7.84
2018-03-22T10:36:05.642Z,8.09
2018-03-22T10:38:31.588Z,7.85
2018-03-22T10:40:57.538Z,7.82
2018-03-22T10:43:23.476Z,7.94
2018-03-22T10:45:49.407Z,8.13
2018-03-22T10:48:15.371Z,7.99
2018-03-22T10:50:41.322Z,7.69
2018-03-22T10:53:07.275Z,7.59
2018-03-22T10:55:33.235Z,7.80
2018-03-22T10:57:59.209Z,7.74
2018-03-22T11:00:25.170Z,7.70
2018-03-22T11:02:51.157Z,7.71
2018-03-22T11:05:17.092Z,7.75
2018-03-22T11:07:43.387Z,7.71
2018-03-22T11:10:09.325Z,7.75
2018-03-22T11:12:35.288Z,7.67
2018-03-22T11:15:01.247Z,7.73
2018-03-22T11:17:27.208Z,7.71
2018-03-22T11:19:53.160Z,7.69
2018-03-22T11:22:19.136Z,7.69
2018-03-22T11:24:45.092Z,7.60
2018-03-22T11:27:11.039Z,7.61
2018-03-22T11:29:36.993Z,7.82
2018-03-22T11:32:02.953Z,7.79
2018-03-22T11:34:28.931Z,7.90
2018-03-22T11:36:54.889Z,7.94
2018-03-22T11:39:20.827Z,7.85
2018-03-22T11:41:46.791Z,7.86
2018-03-22T11:44:12.731Z,7.51
2018-03-22T11:46:38.697Z,7.74
2018-03-22T11:49:04.659Z,7.49
2018-03-22T11:51:30.641Z,7.59
2018-03-22T11:53:56.591Z,7.79
2018-03-22T11:56:22.595Z,7.67
2018-03-22T11:58:48.533Z,7.54
2018-03-22T12:01:14.503Z,7.63
2018-03-22T12:03:40.445Z,7.64
2018-03-22T12:06:06.406Z,7.60
2018-03-22T12:08:32.525Z,7.63
2018-03-22T12:10:58.513Z,7.74
2018-03-22T12:13:24.451Z,7.58
2018-03-22T12:15:50.417Z,7.64
2018-03-22T12:18:16.377Z,7.60
2018-03-22T12:20:42.349Z,7.53
2018-03-22T12:23:08.302Z,7.51
2018-03-22T12:25:34.302Z,7.55
2018-03-22T12:28:00.274Z,7.70
2018-03-22T12:30:26.232Z,7.72
2018-03-22T12:32:52.217Z,7.55
2018-03-22T12:35:18.182Z,7.53
2018-03-22T12:37:44.130Z,7.61
2018-03-22T12:40:10.100Z,7.50
2018-03-22T12:42:36.045Z,7.38
2018-03-22T12:45:01.982Z,7.35
2018-03-22T12:47:27.944Z,7.56
2018-03-22T12:49:53.880Z,7.45
2018-03-22T12:52:19.853Z,7.66
2018-03-22T12:54:45.796Z,7.58
2018-03-22T12:57:11.732Z,7.47
2018-03-22T12:59:37.704Z,7.63
2018-03-22T13:02:03.672Z,7.58
2018-03-22T13:04:29.631Z,7.52
2018-03-22T13:06:55.591Z,7.74
2018-03-22T13:09:21.522Z,7.73
2018-03-22T13:11:47.475Z,7.54
2018-03-22T13:14:13.420Z,7.40
2018-03-22T13:16:39.393Z,7.62
2018-03-22T13:19:05.350Z,7.56
2018-03-22T13:21:31.329Z,7.69
2018-03-22T13:23:57.271Z,7.61
2018-03-22T13:26:23.237Z,7.65
2018-03-22T13:28:49.205Z,7.74
2018-03-22T13:31:15.161Z,7.56
2018-03-22T13:33:41.117Z,7.67
2018-03-22T13:36:07.060Z,7.61
2018-03-22T13:38:33.078Z,7.61
2018-03-22T13:40:59.050Z,7.71
2018-03-22T13:45:57.652Z,7.78
2018-03-22T13:48:23.539Z,7.81
2018-03-22T13:50:49.480Z,7.96
2018-03-22T13:53:15.411Z,7.70
2018-03-22T13:55:41.364Z,7.58
2018-03-22T13:58:07.323Z,7.63
2018-03-22T14:00:33.292Z,7.43
2018-03-22T14:02:59.223Z,7.40
2018-03-22T14:05:25.155Z,7.39
2018-03-22T14:07:51.107Z,7.49
2018-03-22T14:10:17.064Z,7.52
2018-03-22T14:12:43.014Z,7.45
2018-03-22T14:15:08.999Z,7.40
2018-03-22T14:17:34.955Z,7.46
2018-03-22T14:20:00.891Z,7.50
2018-03-22T14:22:26.843Z,7.43
2018-03-22T14:24:52.793Z,7.44
2018-03-22T14:27:18.747Z,7.19
2018-03-22T14:29:44.713Z,7.25
2018-03-22T14:32:10.659Z,7.29
2018-03-22T14:34:36.594Z,7.07
2018-03-22T14:37:02.549Z,7.27
2018-03-22T14:39:28.514Z,7.30
2018-03-22T14:41:54.462Z,7.19
2018-03-22T14:44:20.400Z,7.18
2018-03-22T14:46:46.360Z,7.09
2018-03-22T14:49:12.295Z,7.25
2018-03-22T14:51:38.271Z,7.11
2018-03-22T14:54:04.236Z,7.20
2018-03-22T14:56:31.275Z,7.17
2018-03-22T14:58:57.336Z,7.19
2018-03-22T15:01:23.293Z,7.11
2018-03-22T15:03:49.266Z,7.23
2018-03-22T15:06:15.258Z,7.21
2018-03-22T15:08:41.349Z,7.19
2018-03-22T15:11:07.550Z,7.06
2018-03-22T15:13:33.513Z,7.03
2018-03-22T15:15:59.466Z,7.08
2018-03-22T15:18:25.403Z,7.18
2018-03-22T15:20:51.362Z,7.29
2018-03-22T15:23:17.317Z,7.14
2018-03-22T15:25:43.298Z,7.40
2018-03-22T15:28:09.728Z,7.46
2018-03-22T15:30:35.686Z,7.12
2018-03-22T15:33:01.656Z,7.09
2018-03-22T15:35:27.670Z,7.20
2018-03-22T15:37:53.624Z,7.17
2018-03-22T15:40:19.553Z,7.05
2018-03-22T15:42:45.497Z,7.17
2018-03-22T15:45:11.451Z,7.08
2018-03-22T15:47:37.408Z,6.78
2018-03-22T15:50:03.364Z,7.01
2018-03-22T15:52:29.322Z,6.85
2018-03-22T15:54:55.290Z,6.90
2018-03-22T15:57:21.234Z,6.77
2018-03-22T15:59:47.166Z,6.99
2018-03-22T16:02:13.170Z,7.03
2018-03-22T16:04:39.062Z,6.88
2018-03-22T16:07:05.003Z,6.85
2018-03-22T16:09:30.954Z,6.76
2018-03-22T16:11:56.912Z,6.76
2018-03-22T16:14:22.880Z,6.88
2018-03-22T16:16:48.834Z,6.82
2018-03-22T16:19:14.770Z,6.58
2018-03-22T16:21:40.723Z,6.70
2018-03-22T16:24:06.678Z,6.73
2018-03-22T16:26:32.701Z,6.67
2018-03-22T16:28:58.637Z,6.83
2018-03-22T16:31:24.586Z,6.92
2018-03-22T16:33:50.524Z,6.71
2018-03-22T16:36:16.490Z,6.90
2018-03-22T16:38:42.423Z,6.72
2018-03-22T16:41:08.358Z,6.74
2018-03-22T16:43:34.288Z,6.88
2018-03-22T16:46:00.240Z,6.93
2018-03-22T16:48:26.202Z,6.81
2018-03-22T16:50:52.163Z,6.74
2018-03-22T16:53:18.104Z,6.80
2018-03-22T16:55:44.061Z,6.77
2018-03-22T16:58:10.070Z,7.04
2018-03-22T17:00:36.014Z,7.05
2018-03-22T17:03:02.022Z,6.80
2018-03-22T17:05:27.955Z,6.93
2018-03-22T17:07:53.978Z,6.77
2018-03-22T17:10:20.948Z,6.72
2018-03-22T17:12:46.894Z,6.80
2018-03-22T17:15:12.854Z,6.98
2018-03-22T17:17:38.831Z,6.75
2018-03-22T17:20:04.828Z,6.91
2018-03-22T17:22:30.788Z,6.70
2018-03-22T17:24:56.787Z,6.70
2018-03-22T17:27:22.762Z,6.99
2018-03-22T17:29:49.756Z,6.93
2018-03-22T17:32:15.748Z,6.83
2018-03-22T17:34:41.813Z,6.73
2018-03-22T17:37:07.771Z,6.86
2018-03-22T17:39:33.711Z,6.97
2018-03-22T17:41:59.671Z,6.75
2018-03-22T17:44:25.649Z,6.81
2018-03-22T17:46:51.705Z,6.88
2018-03-22T17:49:17.643Z,6.83
2018-03-22T17:51:43.607Z,6.71
2018-03-22T17:54:09.582Z,6.82
2018-03-22T17:56:35.540Z,6.85
2018-03-22T17:59:01.514Z,6.78
2018-03-22T18:01:27.477Z,6.83
2018-03-22T18:03:53.423Z,6.96
2018-03-22T18:06:19.355Z,6.86
2018-03-22T18:08:45.309Z,6.92
2018-03-22T18:11:11.250Z,7.04
2018-03-22T18:13:37.246Z,7.06
2018-03-22T18:16:03.275Z,7.03
2018-03-22T18:18:29.227Z,6.97
2018-03-22T18:20:55.179Z,6.80
2018-03-22T18:23:21.134Z,6.95
2018-03-22T18:25:47.075Z,6.86
2018-03-22T18:28:13.033Z,6.94
2018-03-22T18:30:39.028Z,6.90
2018-03-22T18:33:04.959Z,6.81
2018-03-22T18:35:30.965Z,6.62
2018-03-22T18:37:56.915Z,6.80
2018-03-22T18:40:22.880Z,7.00
2018-03-22T18:42:48.837Z,6.92
2018-03-22T18:45:14.795Z,6.92
2018-03-22T18:47:40.735Z,6.66
2018-03-22T18:50:06.707Z,6.69
2018-03-22T18:52:32.751Z,6.57
2018-03-22T18:54:58.727Z,6.66
2018-03-22T18:57:25.706Z,6.60
2018-03-22T18:59:51.646Z,6.76
2018-03-22T19:02:17.578Z,6.72
2018-03-22T19:04:43.553Z,6.68
2018-03-22T19:07:09.576Z,6.64
2018-03-22T19:09:35.526Z,6.68
2018-03-22T19:12:01.462Z,6.68
2018-03-22T19:14:27.403Z,6.52
2018-03-22T19:16:53.335Z,6.62
2018-03-22T19:19:19.283Z,6.73
2018-03-22T19:21:45.289Z,6.56
2018-03-22T19:24:11.478Z,6.74
2018-03-22T19:26:37.467Z,6.64
2018-03-22T19:29:03.445Z,6.65
2018-03-22T19:31:30.444Z,6.71
2018-03-22T19:33:56.406Z,6.50
2018-03-22T19:36:22.354Z,6.68
2018-03-22T19:38:48.306Z,6.61
2018-03-22T19:41:14.334Z,6.69
2018-03-22T19:43:40.306Z,6.60
2018-03-22T19:46:06.265Z,6.67
2018-03-22T19:48:32.277Z,6.89
2018-03-22T19:50:58.361Z,6.76
2018-03-22T19:53:24.332Z,6.62
2018-03-22T19:55:50.286Z,6.69
2018-03-22T19:58:16.260Z,6.65
2018-03-22T20:00:42.305Z,6.63
2018-03-22T20:03:08.278Z,6.66
2018-03-22T20:05:34.278Z,6.76
2018-03-22T20:08:00.232Z,6.71
2018-03-22T20:10:26.197Z,6.67
2018-03-22T20:12:52.152Z,6.71
2018-03-22T20:15:18.078Z,6.60
2018-03-22T20:17:44.056Z,6.53
2018-03-22T20:20:10.000Z,6.68
2018-03-22T20:22:37.073Z,6.81
2018-03-22T20:25:03.032Z,6.75
2018-03-22T20:27:28.991Z,6.85
2018-03-22T20:29:55.023Z,6.75
2018-03-22T20:32:21.015Z,6.67
2018-03-22T20:34:46.967Z,6.78
2018-03-22T20:37:12.927Z,6.90
2018-03-22T20:39:38.867Z,6.77
2018-03-22T20:42:04.920Z,6.75
2018-03-22T20:44:30.863Z,6.73
2018-03-22T20:46:56.816Z,6.68
2018-03-22T20:49:22.792Z,6.86
2018-03-22T20:51:48.766Z,6.80
2018-03-22T20:54:14.748Z,6.82
2018-03-22T20:56:40.709Z,6.78
2018-03-22T20:59:06.706Z,6.85
2018-03-22T21:01:32.927Z,6.71
2018-03-22T21:03:58.948Z,6.72
2018-03-22T21:06:24.996Z,6.87
2018-03-22T21:08:50.951Z,6.74
2018-03-22T21:11:18.437Z,6.73
2018-03-22T21:13:44.486Z,6.64
2018-03-22T21:16:10.422Z,6.76
2018-03-22T21:18:36.401Z,6.92
2018-03-22T21:21:02.428Z,6.87
2018-03-22T21:23:28.661Z,6.80
2018-03-22T21:25:54.669Z,6.77
2018-03-22T21:28:20.584Z,6.75
2018-03-22T21:30:46.547Z,6.82
2018-03-22T21:35:43.794Z,6.93
2018-03-22T21:38:09.766Z,6.88
2018-03-22T21:40:36.766Z,6.99
2018-03-22T21:43:02.725Z,6.76
2018-03-22T21:45:28.696Z,6.82
2018-03-22T21:47:54.675Z,6.78
2018-03-22T21:50:20.662Z,6.89
2018-03-22T21:52:46.608Z,7.07
2018-03-22T21:55:12.538Z,6.81
2018-03-22T21:57:38.484Z,6.89
2018-03-22T22:00:04.419Z,6.78
2018-03-22T22:02:30.397Z,6.81
2018-03-22T22:04:56.367Z,6.83
2018-03-22T22:07:22.351Z,6.82
2018-03-22T22:09:49.373Z,6.88
2018-03-22T22:12:15.327Z,6.91
2018-03-22T22:14:41.259Z,6.87
2018-03-22T22:17:07.197Z,6.93
2018-03-22T22:19:33.181Z,7.08
2018-03-22T22:21:59.137Z,7.07
2018-03-22T22:24:25.097Z,7.08
2018-03-22T22:26:51.027Z,6.99
2018-03-22T22:29:16.993Z,6.98
2018-03-22T22:31:42.979Z,7.00
2018-03-22T22:34:08.934Z,6.76
2018-03-22T22:36:34.871Z,6.91
2018-03-22T22:39:00.849Z,7.04
2018-03-22T22:41:26.786Z,6.92
2018-03-22T22:43:52.743Z,7.04
2018-03-22T22:46:18.690Z,7.06
2018-03-22T22:48:44.647Z,7.01
2018-03-22T22:51:10.581Z,7.02
2018-03-22T22:53:36.519Z,6.93
2018-03-22T22:56:02.475Z,7.03
2018-03-22T22:58:28.436Z,7.08
2018-03-22T23:00:54.371Z,7.12
2018-03-22T23:03:20.316Z,7.15
2018-03-22T23:05:46.252Z,6.81
2018-03-22T23:08:12.203Z,6.83
2018-03-22T23:10:38.146Z,6.94
2018-03-22T23:13:04.102Z,6.97
2018-03-22T23:15:30.062Z,6.89
2018-03-22T23:17:56.003Z,6.88
2018-03-22T23:20:21.954Z,7.00
2018-03-22T23:22:47.924Z,7.09
2018-03-22T23:25:13.869Z,7.00
2018-03-22T23:27:39.836Z,6.94
2018-03-22T23:30:05.790Z,7.02
2018-03-22T23:32:31.761Z,7.05
2018-03-22T23:34:57.699Z,6.96
2018-03-22T23:37:23.674Z,7.05
2018-03-22T23:39:49.632Z,7.02
2018-03-22T23:42:15.598Z,7.03
2018-03-22T23:44:41.542Z,7.17
2018-03-22T23:47:07.498Z,7.11
2018-03-22T23:49:33.440Z,7.08
2018-03-22T23:51:59.386Z,7.13
2018-03-22T23:54:25.335Z,7.06
2018-03-22T23:56:51.296Z,7.15
2018-03-22T23:59:17.241Z,7.01
